»·PEaware :: N236C KBHB-KBUF

N236C :: KBHB-KBUF

FLIGHT INFORMATION

Flight Status: Arrived
Operator: Privately registered:
United States
More flights under this callsign
Pilot: Kenny J. (11300)
Aircraft: Unknown
(B60T)
More flights by this aircraft type
Origin: KBHB Hancock Co-Bar Harbor
United States
Destination: KBUF Buffalo Niagara Intl
United States
More flights between these airports :: More routes between these airports
Route: BGR DCT CAM DCT UCA DCT SYR DCT ROC DCT BUF
File this flight plan on PilotEdge
Remarks:
Altitude:
(Current/Filed)
24,000ft
Speed:
(Current/Filed)
190kts
Departed: 22-Feb-17 06:41 AM
Arrived: 22-Feb-17 09:09 AM
Distance/Time
Traveled:
459nm/2:28
Distance/Time
To Go:
Arrived

Flight Plot

Page will automatically refresh every two minutes.

Flight plan parsing failed; only flown route is shown


Map Options




Map Legend


Flown Route
Filed Route
Departure Airport
Arrival Airport
Navaid (VOR, NDB)
Fix

Horizontal Profiles

Position Reports

Time Latitude Longitude Heading Altitude Ground
Speed
22-Feb-17 06:28 44.446021 -68.362955 112 72ft 0kts
22-Feb-17 06:29 44.446021 -68.362955 112 72ft 0kts
22-Feb-17 06:30 44.446021 -68.362955 112 72ft 0kts
22-Feb-17 06:31 44.446021 -68.362954 112 72ft 0kts
22-Feb-17 06:32 44.446021 -68.362953 112 72ft 0kts
22-Feb-17 06:33 44.446021 -68.362953 112 72ft 0kts
22-Feb-17 06:34 44.446021 -68.362953 112 72ft 0kts
22-Feb-17 06:35 44.446021 -68.362953 112 72ft 0kts
22-Feb-17 06:36 44.446021 -68.362953 112 72ft 0kts
22-Feb-17 06:37 44.446021 -68.362953 112 72ft 0kts
22-Feb-17 06:38 44.446021 -68.362952 112 72ft 0kts
22-Feb-17 06:39 44.446461 -68.363931 213 72ft 12kts
22-Feb-17 06:40 44.443628 -68.366361 295 72ft 0kts
22-Feb-17 06:41 44.443719 -68.366627 297 72ft 5kts
22-Feb-17 06:42 44.454447 -68.360248 23 468ft 124kts
22-Feb-17 06:43 44.490938 -68.365411 293 2616ft 178kts
22-Feb-17 06:44 44.508106 -68.437479 305 5010ft 220kts
22-Feb-17 06:45 44.554401 -68.498736 313 7427ft 233kts
22-Feb-17 06:46 44.601189 -68.559776 309 9906ft 225kts
22-Feb-17 06:47 44.645850 -68.618090 305 12507ft 212kts
22-Feb-17 06:48 44.688307 -68.673939 301 15089ft 207kts
22-Feb-17 06:49 44.730053 -68.729113 297 17672ft 204kts
22-Feb-17 06:50 44.771018 -68.783287 293 20252ft 200kts
22-Feb-17 06:51 44.810308 -68.834931 287 22807ft 184kts
22-Feb-17 06:52 44.840977 -68.889615 240 23996ft 163kts
22-Feb-17 06:53 44.818752 -68.946322 222 23426ft 178kts
22-Feb-17 06:54 44.793541 -69.008184 225 23281ft 185kts
22-Feb-17 06:55 44.768259 -69.073408 226 23282ft 192kts
22-Feb-17 06:56 44.742626 -69.139864 226 23271ft 195kts
22-Feb-17 06:57 44.716442 -69.207651 226 23269ft 197kts
22-Feb-17 06:58 44.690020 -69.275855 226 23267ft 199kts
22-Feb-17 06:59 44.663343 -69.344526 226 23266ft 201kts
22-Feb-17 07:00 44.636832 -69.412781 226 23267ft 195kts
22-Feb-17 07:01 44.610861 -69.479323 226 23271ft 194kts
22-Feb-17 07:02 44.584916 -69.545625 226 23274ft 194kts
22-Feb-17 07:03 44.558814 -69.612150 226 23277ft 195kts
22-Feb-17 07:04 44.532457 -69.679185 226 23278ft 196kts
22-Feb-17 07:05 44.506055 -69.746189 227 23273ft 198kts
22-Feb-17 07:06 44.479203 -69.814167 227 23254ft 200kts
22-Feb-17 07:07 44.452195 -69.882408 227 23233ft 201kts
22-Feb-17 07:08 44.425052 -69.950858 227 23220ft 201kts
22-Feb-17 07:09 44.397701 -70.019606 227 23216ft 202kts
22-Feb-17 07:10 44.370212 -70.088409 227 23218ft 204kts
22-Feb-17 07:11 44.342374 -70.158127 227 23219ft 205kts
22-Feb-17 07:12 44.314633 -70.227491 227 23218ft 205kts
22-Feb-17 07:13 44.286580 -70.297471 227 23211ft 205kts
22-Feb-17 07:14 44.258680 -70.366911 227 23232ft 205kts
22-Feb-17 07:15 44.230615 -70.436561 227 23237ft 205kts
22-Feb-17 07:16 44.202553 -70.506050 227 23246ft 206kts
22-Feb-17 07:17 44.174381 -70.575553 227 23259ft 206kts
22-Feb-17 07:18 44.146092 -70.645321 227 23276ft 206kts
22-Feb-17 07:19 44.117878 -70.714581 227 23297ft 207kts
22-Feb-17 07:20 44.089343 -70.784469 227 23318ft 207kts
22-Feb-17 07:21 44.060726 -70.854345 227 23335ft 208kts
22-Feb-17 07:22 44.031868 -70.924612 227 23345ft 210kts
22-Feb-17 07:23 44.002669 -70.995521 227 23348ft 212kts
22-Feb-17 07:24 43.973516 -71.066211 228 23347ft 210kts
22-Feb-17 07:25 43.944460 -71.136434 228 23346ft 210kts
22-Feb-17 07:26 43.915245 -71.206860 228 23343ft 211kts
22-Feb-17 07:27 43.885717 -71.277858 228 23339ft 213kts
22-Feb-17 07:28 43.856141 -71.348837 228 23336ft 214kts
22-Feb-17 07:29 43.826103 -71.420731 228 23333ft 216kts
22-Feb-17 07:30 43.795955 -71.492696 228 23348ft 217kts
22-Feb-17 07:31 43.765527 -71.565157 228 23353ft 218kts
22-Feb-17 07:32 43.734849 -71.638052 228 23356ft 220kts
22-Feb-17 07:33 43.703924 -71.711342 228 23357ft 221kts
22-Feb-17 07:34 43.672721 -71.785179 228 23359ft 222kts
22-Feb-17 07:35 43.641485 -71.858922 228 23362ft 223kts
22-Feb-17 07:36 43.610067 -71.932929 228 23373ft 223kts
22-Feb-17 07:37 43.578870 -72.006247 229 23384ft 222kts
22-Feb-17 07:38 43.547217 -72.080129 229 23398ft 224kts
22-Feb-17 07:39 43.515270 -72.154722 229 23405ft 227kts
22-Feb-17 07:40 43.482696 -72.230563 230 23412ft 233kts
22-Feb-17 07:41 43.449381 -72.308043 230 23420ft 236kts
22-Feb-17 07:42 43.416023 -72.385414 230 23430ft 233kts
22-Feb-17 07:43 43.383200 -72.461326 231 23436ft 231kts
22-Feb-17 07:44 43.350416 -72.536918 231 23438ft 228kts
22-Feb-17 07:44 43.323356 -72.599181 231 23438ft 227kts
22-Feb-17 07:45 43.290877 -72.673667 232 23438ft 226kts
22-Feb-17 07:47 43.253260 -72.759755 232 23438ft 225kts
22-Feb-17 07:47 43.226522 -72.820737 232 23439ft 224kts
22-Feb-17 07:49 43.188893 -72.906407 232 23441ft 224kts
22-Feb-17 07:49 43.162102 -72.967208 233 23449ft 223kts
22-Feb-17 07:50 43.129973 -73.039989 233 23458ft 223kts
22-Feb-17 07:51 43.097734 -73.112819 233 23462ft 223kts
22-Feb-17 07:52 43.065556 -73.185344 233 23469ft 223kts
22-Feb-17 07:53 43.033380 -73.257682 233 23471ft 223kts
22-Feb-17 07:54 43.001128 -73.330050 234 23472ft 223kts
22-Feb-17 07:55 42.996277 -73.417215 264 23476ft 237kts
22-Feb-17 07:56 42.998814 -73.507192 264 23480ft 237kts
22-Feb-17 07:57 43.000996 -73.597104 264 23486ft 237kts
22-Feb-17 07:58 43.003062 -73.686977 264 23494ft 237kts
22-Feb-17 07:59 43.005075 -73.777191 264 23498ft 237kts
22-Feb-17 08:00 43.006980 -73.866731 264 23508ft 237kts
22-Feb-17 08:01 43.008843 -73.957040 264 23508ft 237kts
22-Feb-17 08:02 43.010592 -74.046905 266 23512ft 236kts
22-Feb-17 08:03 43.012263 -74.136902 266 23514ft 236kts
22-Feb-17 08:04 43.013890 -74.226127 266 23516ft 235kts
22-Feb-17 08:05 43.015462 -74.315829 266 23518ft 235kts
22-Feb-17 08:06 43.016960 -74.405185 266 23521ft 235kts
22-Feb-17 08:07 43.018383 -74.494432 266 23524ft 235kts
22-Feb-17 08:08 43.019723 -74.583723 266 23528ft 235kts
22-Feb-17 08:09 43.021005 -74.672938 266 23533ft 235kts
22-Feb-17 08:10 43.022221 -74.762380 266 23537ft 234kts
22-Feb-17 08:11 43.023352 -74.851734 266 23542ft 234kts
22-Feb-17 08:12 43.024418 -74.940815 266 23546ft 234kts
22-Feb-17 08:13 43.025413 -75.029451 266 23550ft 234kts
22-Feb-17 08:14 43.026337 -75.118590 266 23552ft 234kts
22-Feb-17 08:15 43.032297 -75.207291 275 23557ft 236kts
22-Feb-17 08:16 43.044222 -75.295660 275 23557ft 236kts
22-Feb-17 08:17 43.055905 -75.383999 275 23558ft 236kts
22-Feb-17 08:18 43.067519 -75.472633 276 23560ft 236kts
22-Feb-17 08:19 43.079037 -75.561024 276 23560ft 236kts
22-Feb-17 08:20 43.090474 -75.649333 276 23562ft 236kts
22-Feb-17 08:21 43.101827 -75.737560 276 23563ft 235kts
22-Feb-17 08:22 43.113153 -75.826207 276 23567ft 236kts
22-Feb-17 08:23 43.124388 -75.914632 276 23568ft 236kts
22-Feb-17 08:24 43.135560 -76.003098 276 23568ft 236kts
22-Feb-17 08:25 43.146620 -76.091583 277 23568ft 234kts
22-Feb-17 08:26 43.157537 -76.179242 277 23569ft 234kts
22-Feb-17 08:27 43.159336 -76.267858 266 23569ft 232kts
22-Feb-17 08:28 43.157109 -76.356339 266 23569ft 232kts
22-Feb-17 08:29 43.154933 -76.444802 266 23570ft 232kts
22-Feb-17 08:30 43.152707 -76.533272 266 23571ft 232kts
22-Feb-17 08:31 43.150417 -76.621980 266 23572ft 232kts
22-Feb-17 08:32 43.148063 -76.710415 266 23574ft 232kts
22-Feb-17 08:33 43.145637 -76.798817 266 23576ft 232kts
22-Feb-17 08:34 43.143133 -76.887516 266 23579ft 232kts
22-Feb-17 08:35 43.140581 -76.975542 266 23588ft 232kts
22-Feb-17 08:36 43.137942 -77.064174 266 23592ft 232kts
22-Feb-17 08:37 43.135247 -77.152419 266 23601ft 232kts
22-Feb-17 08:38 43.132482 -77.240745 266 23605ft 232kts
22-Feb-17 08:39 43.129647 -77.329032 267 23609ft 232kts
22-Feb-17 08:40 43.126735 -77.417634 267 23612ft 232kts
22-Feb-17 08:41 43.123768 -77.505903 266 23615ft 232kts
22-Feb-17 08:42 43.120727 -77.594226 267 23618ft 232kts
22-Feb-17 08:43 43.116492 -77.682381 257 23618ft 233kts
22-Feb-17 08:44 43.099902 -77.768007 256 23619ft 233kts
22-Feb-17 08:45 43.083478 -77.853763 256 23620ft 233kts
22-Feb-17 08:46 43.066999 -77.939752 256 23622ft 233kts
22-Feb-17 08:47 43.050513 -78.025414 256 23624ft 233kts
22-Feb-17 08:48 43.033995 -78.110906 256 23627ft 232kts
22-Feb-17 08:49 43.017365 -78.196613 256 23629ft 232kts
22-Feb-17 08:50 43.000866 -78.281289 256 23465ft 238kts
22-Feb-17 08:51 42.982124 -78.349062 216 21734ft 169kts
22-Feb-17 08:52 42.938057 -78.359740 196 19555ft 150kts
22-Feb-17 08:53 42.898286 -78.365103 196 17364ft 139kts
22-Feb-17 08:54 42.887615 -78.385590 341 15066ft 123kts
22-Feb-17 08:55 42.924167 -78.364946 18 12469ft 160kts
22-Feb-17 08:56 42.964475 -78.333167 18 9658ft 168kts
22-Feb-17 08:57 42.980761 -78.358906 244 6890ft 140kts
22-Feb-17 08:58 42.953299 -78.397754 223 4258ft 140kts
22-Feb-17 08:59 42.923122 -78.428249 223 3506ft 141kts
22-Feb-17 09:00 42.890317 -78.462658 223 3504ft 153kts
22-Feb-17 09:01 42.857497 -78.496960 223 3499ft 140kts
22-Feb-17 09:02 42.834772 -78.529362 267 3489ft 99kts
22-Feb-17 09:03 42.848580 -78.561574 302 3509ft 109kts
22-Feb-17 09:04 42.866787 -78.595094 303 3033ft 111kts
22-Feb-17 09:05 42.885002 -78.628350 303 2418ft 107kts
22-Feb-17 09:06 42.902390 -78.660088 302 1883ft 96kts
22-Feb-17 09:07 42.919099 -78.690585 302 1344ft 103kts
22-Feb-17 09:08 42.935898 -78.721545 302 780ft 94kts
22-Feb-17 09:09 42.942580 -78.735226 232 727ft 5kts
22-Feb-17 09:10 42.942551 -78.735391 275 727ft 0kts
22-Feb-17 09:11 42.942551 -78.735391 275 727ft 0kts

Navigation Log

Ident Type
Flight plan parsing failed, navigation log unavailable